Rapports des METAR proches

 

LFAQ - Bray, France
Distance from station: SSO 19km
Mise à jour: 18/10/2019 12:30
Très nuageux
Très nuageux
 Vent SO
Vent: SO 33 km/h
Température: 14°C
Point de rosée: 9°C
Humidité: 72%
Baromètre: 1007 hPa
Clouds: Très nuageux
Visibility: 10 km
Cloud details: Partiellement nuageux 884 m
Partiellement nuageux 3353 m
Très nuageux 4572 m
2019/10/18 10:30 LFAQ 181030Z AUTO 23018KT 9999 SCT029 SCT110 BKN150 14/09 Q1007 TEMPO 1500 SHRA BKN016CB SCT020 OVC033 BECMG 20015G25KT
LFQQ - Lille/Lesquin, France
Distance from station: NNE 53km
Mise à jour: 18/10/2019 12:30
Clair
Clair
 Vent SO
Vent: SO 35 km/h
Température: 12°C
Point de rosée: 7°C
Humidité: 72%
Baromètre: 1005 hPa
Résumé: Clair
Visibility: greater than 10 km
2019/10/18 10:30 LFQQ 181030Z AUTO 22019KT CAVOK 12/07 Q1005 TEMPO 22020G37KT 1500 SHRA BKN015CB SCT020 BKN035
EBCV - Chievres Ab, Belgium
Distance from station: NE 88km
Mise à jour: 18/10/2019 12:25
Très nuageux
Très nuageux
 Vent SO
Vent: SO 35 km/h, Rafale: 54 km/h
Température: 12°C
Point de rosée: 7°C
Humidité: 72%
Baromètre: 1006 hPa
Clouds: Très nuageux
Visibility: 10 km
Cloud details: Très nuageux 914 m
2019/10/18 10:25 EBCV 181025Z AUTO 23019G29KT 9999 BKN030/// 12/07 Q1006 BLU
 
LFOB - Beauvais/Tille(A, France
Distance from station: SSO 88km
Mise à jour: 18/10/2019 12:30
Très nuageux
Très nuageux
 Vent SO
Vent: SO 30 km/h
Température: 13°C
Point de rosée: 8°C
Humidité: 72%
Baromètre: 1008 hPa
Clouds: Très nuageux
Visibility: 10 km
Cloud details: Très nuageux 762 m
Très nuageux 945 m
2019/10/18 10:30 LFOB 181030Z AUTO 23016KT 9999 BKN025 BKN031 13/08 Q1008 BECMG 22015G25KT
LFAT - Le Touquet/P. Pl, France
Distance from station: ONO 93km
Mise à jour: 18/10/2019 12:30
Pluie faible, Orage
Pluie faible, Orage
 Vent SO
Vent: SO 26 km/h, Rafale: 48 km/h
Température: 13°C
Point de rosée: 11°C
Humidité: 88%
Baromètre: 1004 hPa
Résumé: Pluie faible
Clouds: Orage
Visibility: 10 km
Cloud details: Partiellement nuageux 579 m
Très nuageux 1402 m
Très nuageux 1951 m
2019/10/18 10:30 LFAT 181030Z AUTO 22014G26KT 180V260 9999 -RA SCT019/// BKN046/// BKN064/// ///CB 13/11 Q1004 TEMPO 22020G37KT 1500 SHRA
LFPC - Creil (fafb), France
Distance from station: S 100km
Mise à jour: 01/09/2016 17:00
NOT Current
Clair
Clair
 Vent ONO
Vent: ONO 7 km/h
Température: 24°C
Point de rosée: 13°C
Humidité: 50%
Baromètre: 1023 hPa
Résumé: Clair
Visibility: greater than 10 km
2016/09/01 15:00 LFPC 011500Z AUTO 30004KT 240V350 CAVOK 24/13 Q1023
 
EBFN - Koksijde (bel-Af, Belgium
Distance from station: N 105km
Mise à jour: 18/10/2019 12:25
Très nuageux
Très nuageux
 Vent SO
Vent: SO 28 km/h
Température: 12°C
Point de rosée: 10°C
Humidité: 88%
Baromètre: 1003 hPa
Clouds: Très nuageux
Visibility: 10 km
Cloud details: Quelques nuages 549 m
Partiellement nuageux 1219 m
Très nuageux 6096 m
2019/10/18 10:25 EBFN 181025Z 22015KT 9999 FEW018 SCT040 BKN200 12/10 Q1003 BLU BLU TEMPO GRN
EBOS - Oostende Airport, Belgium
Distance from station: N 119km
Mise à jour: 18/10/2019 12:20
Très nuageux
Très nuageux
 Vent SO
Vent: SO 31 km/h
Température: 12°C
Point de rosée: 9°C
Humidité: 82%
Baromètre: 1003 hPa
Clouds: Très nuageux
Visibility: 10 km
Cloud details: Quelques nuages 305 m
Partiellement nuageux 549 m
Très nuageux 1067 m
2019/10/18 10:20 EBOS 181020Z 23017KT 9999 FEW010 SCT018TCU BKN035 12/09 Q1003 TEMPO 22017G27KT
EBCI - Charleroi/Gossel, Belgium
Distance from station: ENE 124km
Mise à jour: 18/10/2019 12:20
Quelques nuages
Quelques nuages
 Vent SO
Vent: SO 39 km/h
Température: 12°C
Point de rosée: 7°C
Humidité: 72%
Baromètre: 1006 hPa
Clouds: Quelques nuages
Visibility: 10 km
Cloud details: Quelques nuages 701 m
2019/10/18 10:20 EBCI 181020Z 23021KT 9999 FEW023 12/07 Q1006 TEMPO 22015G27KT
 
LFPG - Charles De Gaull, France
Distance from station: S 125km
Mise à jour: 18/10/2019 12:30
Très nuageux
Très nuageux
 Vent SO
Vent: SO 31 km/h
Température: 14°C
Point de rosée: 7°C
Humidité: 63%
Baromètre: 1009 hPa
Clouds: Très nuageux
Visibility: 10 km
Cloud details: Très nuageux 975 m
2019/10/18 10:30 LFPG 181030Z 22017KT 9999 BKN032 14/07 Q1009 NOSIG
LFPT - Cormeilles Vexin, France
Distance from station: SSO 127km
Mise à jour: 18/10/2019 12:30
Très nuageux
Très nuageux
 Vent OSO
Vent: OSO 26 km/h
Température: 14°C
Point de rosée: 7°C
Humidité: 63%
Baromètre: 1009 hPa
Clouds: Très nuageux
Visibility: 10 km
Cloud details: Très nuageux 884 m
Très nuageux 1067 m
2019/10/18 10:30 LFPT 181030Z AUTO 25014KT 9999 BKN029 BKN035 14/07 Q1009
LFPB - Paris/Le Bourget, France
Distance from station: S 132km
Mise à jour: 18/10/2019 12:30
Très nuageux
Très nuageux
 Vent SO
Vent: SO 30 km/h
Température: 14°C
Point de rosée: 7°C
Humidité: 63%
Baromètre: 1009 hPa
Clouds: Très nuageux
Visibility: 10 km
Cloud details: Très nuageux 1097 m
2019/10/18 10:30 LFPB 181030Z AUTO 23016KT 9999 BKN036 14/07 Q1009 TEMPO 24015G25KT SCT030TCU
 
EBFS - Florennes (bel-A, Belgium
Distance from station: E 133km
Mise à jour: 18/10/2019 12:25
Partiellement nuageux
Partiellement nuageux
 Vent SSO
Vent: SSO 30 km/h
Température: 11°C
Point de rosée: 7°C
Humidité: 77%
Baromètre: 1007 hPa
Clouds: Partiellement nuageux
Visibility: 10 km
Cloud details: Quelques nuages 671 m
Partiellement nuageux 1067 m
2019/10/18 10:25 EBFS 181025Z 20016KT 9999 FEW022 SCT035 11/07 Q1007 BLU BLU TEMPO WHT
LFQA - Reims/Prunay, France
Distance from station: SE 143km
Mise à jour: 18/10/2019 12:30
Clair
Clair
 Vent OSO
Vent: OSO 24 km/h, Rafale: 44 km/h
Température: 14°C
Point de rosée: 8°C
Humidité: 67%
Baromètre: 1009 hPa
Résumé: Clair
Visibility: greater than 10 km
2019/10/18 10:30 LFQA 181030Z AUTO 25013G24KT CAVOK 14/08 Q1009
LFOP - Rouen/Boos (aut), France
Distance from station: SO 144km
Mise à jour: 18/10/2019 12:30
Partiellement nuageux
Partiellement nuageux
 Vent SO
Vent: SO 30 km/h
Température: 14°C
Point de rosée: 9°C
Humidité: 72%
Baromètre: 1007 hPa
Clouds: Partiellement nuageux
Visibility: 10 km
Cloud details: Partiellement nuageux 945 m
2019/10/18 10:30 LFOP 181030Z AUTO 23016KT 9999 SCT031 14/09 Q1007 BECMG 22015G25KT
 
EBBR - Brussels Nationa, Belgium
Distance from station: NE 148km
Mise à jour: 18/10/2019 12:20
Très nuageux
Très nuageux
 Vent SO
Vent: SO 31 km/h
Température: 13°C
Point de rosée: 7°C
Humidité: 67%
Baromètre: 1004 hPa
Clouds: Très nuageux
Visibility: 10 km
Cloud details: Quelques nuages 914 m
Très nuageux 1067 m
2019/10/18 10:20 EBBR 181020Z 23017KT 9999 FEW030 BKN035 13/07 Q1004 TEMPO 23018G35KT 4500 SHRA